Latest Weather Observations for Birdsville

IDQ60801

Issued at 12:22 pm EST Monday 27 January 2020 (issued every 10 minutes, with the page automatically refreshed every 10 minutes)

About weather observations | Map of weather stations | Latest weather observations for QLD | Other Formats
Station Details ID: 038026 Name: BIRDSVILLE AIRPORT Lat: -25.90 Lon: 139.35 Height: 46.6 m
Data from the previous 72 hours. | See also: Recent months at Birdsville
Date/Time
EST
Temp
°C
App
Temp
°C
Dew
Point
°C
Rel
Hum
%
Delta-T
°C
Wind Press
QNH
hPa
Press
MSL
hPa
Rain since
9am
mm
Dir  Spd
km/h
Gust
km/h
Spd
kts
Gust
kts
27/12:00pm 37.8 39.3 19.7 34 12.1 E 11 22 6 12 1007.7 1007.3 0.0
27/11:30am 36.2 37.1 19.2 37 11.3 NE 13 17 7 9 1007.9 1007.5 0.0
27/11:00am 36.3 38.0 20.1 38 10.9 N 11 20 6 11 1007.9 1007.5 0.0
27/10:30am 35.8 36.0 19.3 38 10.9 N 17 22 9 12 1008.2 1007.8 0.0
27/10:00am 34.4 34.2 18.4 38 10.5 N 17 26 9 14 1008.2 1007.8 0.0
27/09:30am 33.8 31.0 13.3 29 12.4 N 20 26 11 14 1008.2 1007.8 0.0
27/09:00am 33.8 31.3 12.2 27 12.9 NE 17 22 9 12 1008.2 1007.8 0.0
27/08:30am 32.9 29.8 9.0 23 13.5 ESE 15 19 8 10 1008.1 1007.7 0.0
27/08:00am 31.3 26.3 1.6 15 14.8 SE 17 22 9 12 1008.0 1007.6 0.0
27/07:30am 29.6 25.3 1.1 16 13.9 SSE 13 17 7 9 1007.6 1007.2 0.0
27/07:00am 28.2 24.4 1.7 18 12.9 SSE 11 17 6 9 1007.3 1006.9 0.0
27/06:30am 25.6 21.7 1.0 20 11.6 SSW 11 13 6 7 1007.4 1007.0 0.0
27/06:00am 26.1 21.8 0.7 19 12.0 SW 13 15 7 8 1007.2 1006.8 0.0
27/05:30am 27.6 23.8 1.9 19 12.5 SSW 11 13 6 7 1006.9 1006.5 0.0
27/05:00am 27.4 24.0 1.8 19 12.4 SSW 9 11 5 6 1006.8 1006.4 0.0
27/04:30am 28.1 25.4 3.7 21 12.3 ESE 7 9 4 5 1006.4 1006.0 0.0
27/04:00am 28.4 25.4 1.8 18 13.0 SSW 7 11 4 6 1006.3 1005.9 0.0
27/03:30am 29.0 25.3 2.3 18 13.2 S 11 13 6 7 1006.3 1005.9 0.0
27/03:00am 29.1 25.8 2.4 18 13.3 SSW 9 13 5 7 1006.7 1006.3 0.0
27/02:30am 29.7 26.3 2.1 17 13.7 SSW 9 11 5 6 1007.0 1006.6 0.0
27/02:00am 30.8 28.0 3.0 17 14.1 S 7 9 4 5 1007.4 1007.0 0.0
27/01:30am 31.2 28.6 3.3 17 14.2 SE 6 7 3 4 1007.7 1007.3 0.0
27/01:00am 31.5 28.8 3.5 17 14.4 SE 7 9 4 5 1008.0 1007.6 0.0
27/12:30am 32.6 28.7 3.5 16 15.0 SSE 13 17 7 9 1008.1 1007.7 0.0
27/12:00am 33.4 29.1 3.3 15 15.6 S 15 19 8 10 1008.2 1007.8 0.0
 
Date/Time
EST
Temp
°C
App
Temp
°C
Dew
Point
°C
Rel
Hum
%
Delta-T
°C
Wind Press
QNH
hPa
Press
MSL
hPa
Rain since
9am
mm
Dir  Spd
km/h
Gust
km/h
Spd
kts
Gust
kts
26/11:30pm 33.6 30.0 5.2 17 15.2 S 13 15 7 8 1008.1 1007.7 0.0
26/11:00pm 34.5 30.5 5.0 16 15.8 S 15 17 8 9 1007.9 1007.5 0.0
26/10:30pm 36.0 30.6 4.3 14 16.9 SSE 22 33 12 18 1007.7 1007.3 0.0
26/10:00pm 35.4 31.8 4.8 15 16.4 S 13 17 7 9 1007.6 1007.2 0.0
26/09:30pm 35.7 31.9 6.0 16 16.2 S 15 19 8 10 1007.4 1007.0 0.0
26/09:00pm 35.2 32.9 7.3 18 15.6 S 9 13 5 7 1007.0 1006.6 0.0
26/08:30pm 36.1 33.9 8.0 18 15.9 SSE 9 11 5 6 1006.7 1006.3 0.0
26/08:00pm 36.5 33.7 8.4 18 16.0 SSE 13 17 7 9 1006.5 1006.1 0.0
26/07:30pm 36.9 33.2 9.5 19 15.9 SE 19 26 10 14 1006.2 1005.8 0.0
26/07:00pm 37.0 32.8 9.6 19 16.0 SSE 22 30 12 16 1005.7 1005.3 0.0
26/06:30pm 37.3 32.5 9.0 18 16.3 SSE 24 32 13 17 1005.6 1005.2 0.0
26/06:00pm 37.8 32.5 8.6 17 16.8 SSE 26 32 14 17 1005.4 1005.0 0.0
26/05:30pm 37.6 32.1 7.5 16 17.0 SSE 26 33 14 18 1005.4 1005.0 0.0
26/05:00pm 37.8 32.1 6.7 15 17.4 SSE 26 33 14 18 1005.5 1005.1 0.0
26/04:30pm 38.2 32.3 6.0 14 17.8 S 26 37 14 20 1005.7 1005.3 0.0
26/04:00pm 38.8 33.4 6.5 14 18.1 S 24 33 13 18 1006.0 1005.6 0.0
26/03:30pm 38.5 33.3 7.3 15 17.6 S 24 33 13 18 1006.1 1005.7 0.0
26/03:00pm 37.7 33.1 6.6 15 17.4 SSE 20 28 11 15 1006.5 1006.1 0.0
26/02:30pm 37.3 32.7 6.3 15 17.2 SSE 20 28 11 15 1006.8 1006.4 0.0
26/02:00pm 37.1 31.1 5.2 14 17.4 SSE 26 33 14 18 1007.3 1006.9 0.0
26/01:30pm 37.1 31.1 5.2 14 17.3 SE 26 35 14 19 1007.7 1007.3 0.0
26/01:00pm 37.2 30.2 4.2 13 17.7 SE 30 39 16 21 1008.0 1007.6 0.0
26/12:30pm 36.9 31.0 4.0 13 17.5 SSE 24 35 13 19 1008.3 1007.9 0.0
26/12:00pm 36.8 30.5 3.9 13 17.5 SSE 26 35 14 19 1008.5 1008.1 0.0
26/11:30am 36.5 30.6 5.7 15 16.8 SE 26 35 14 19 1008.8 1008.4 0.0
26/11:00am 35.9 28.7 3.2 13 17.1 SE 30 39 16 21 1008.8 1008.4 0.0
26/10:30am 35.1 27.5 2.6 13 16.8 SE 32 39 17 21 1009.0 1008.6 0.0
26/10:00am 35.3 27.7 2.7 13 16.9 SE 32 41 17 22 1009.0 1008.6 0.0
26/09:30am 34.1 26.9 2.8 14 16.1 SE 30 41 16 22 1009.0 1008.6 0.0
26/09:00am 33.4 25.7 3.3 15 15.6 SE 33 43 18 23 1008.8 1008.4 0.0
26/08:30am 32.4 24.7 2.5 15 15.2 SSE 32 41 17 22 1008.8 1008.4 0.0
26/08:00am 31.3 24.6 3.4 17 14.3 SSE 28 35 15 19 1008.6 1008.2 0.0
26/07:30am 30.7 24.4 3.7 18 13.8 SSE 26 35 14 19 1008.7 1008.3 0.0
26/07:00am 30.4 24.4 3.4 18 13.8 SSE 24 33 13 18 1008.4 1008.0 0.0
26/06:30am 30.5 24.9 3.5 18 13.8 SSE 22 30 12 16 1008.3 1007.9 0.0
26/06:00am 30.5 24.2 3.5 18 13.8 SSE 26 33 14 18 1008.0 1007.6 0.0
26/05:30am 30.5 24.4 2.7 17 14.0 SSE 24 32 13 17 1007.8 1007.4 0.0
26/05:00am 30.5 24.2 3.5 18 13.8 SSE 26 33 14 18 1007.4 1007.0 0.0
26/04:30am 30.4 24.0 3.4 18 13.7 SSE 26 32 14 17 1007.2 1006.8 0.0
26/04:00am 30.4 24.4 3.4 18 13.8 SSE 24 32 13 17 1007.2 1006.8 0.0
26/03:30am 30.6 24.1 2.8 17 14.0 SSE 26 35 14 19 1007.1 1006.7 0.0
26/03:00am 31.0 24.6 3.1 17 14.2 SSE 26 35 14 19 1007.2 1006.8 0.0
26/02:30am 31.4 24.9 2.6 16 14.5 SSE 26 37 14 20 1007.3 1006.9 0.0
26/02:00am 31.6 25.1 2.7 16 14.7 SSE 26 35 14 19 1007.3 1006.9 0.0
26/01:30am 31.8 25.2 2.0 15 14.9 SSE 26 37 14 20 1007.4 1007.0 0.0
26/01:00am 32.2 25.5 1.3 14 15.4 SSE 26 35 14 19 1007.6 1007.2 0.0
26/12:30am 32.5 25.4 1.6 14 15.4 SSE 28 37 15 20 1007.9 1007.5 0.0
26/12:00am 32.9 26.3 1.9 14 15.6 S 26 33 14 18 1008.1 1007.7 0.0
 
Date/Time
EST
Temp
°C
App
Temp
°C
Dew
Point
°C
Rel
Hum
%
Delta-T
°C
Wind Press
QNH
hPa
Press
MSL
hPa
Rain since
9am
mm
Dir  Spd
km/h
Gust
km/h
Spd
kts
Gust
kts
25/11:30pm 33.2 26.4 1.1 13 16.0 S 26 32 14 17 1008.1 1007.7 0.0
25/11:00pm 33.5 26.8 1.3 13 16.1 S 26 35 14 19 1008.0 1007.6 0.0
25/10:30pm 33.9 26.8 1.6 13 16.3 S 28 39 15 21 1008.0 1007.6 0.0
25/10:00pm 34.3 27.3 2.0 13 16.5 S 28 37 15 20 1007.8 1007.4 0.0
25/09:30pm 34.6 28.0 2.2 13 16.6 S 26 35 14 19 1007.5 1007.1 0.0
25/09:00pm 35.1 28.6 2.6 13 16.8 S 26 33 14 18 1007.4 1007.0 0.0
25/08:30pm 35.6 29.2 3.0 13 17.0 S 26 33 14 18 1007.2 1006.8 0.0
25/08:00pm 36.2 29.8 3.4 13 17.3 S 26 33 14 18 1007.2 1006.8 0.0
25/07:30pm 37.2 31.7 4.2 13 17.7 S 22 28 12 15 1006.8 1006.4 0.0
25/07:00pm 37.7 31.2 4.6 13 17.9 SSW 28 35 15 19 1006.5 1006.1 0.0
25/06:30pm 38.0 32.3 4.8 13 18.0 SSW 24 28 13 15 1006.1 1005.7 0.0
25/06:00pm 38.7 33.9 5.4 13 18.3 SSW 20 33 11 18 1005.9 1005.5 0.0
25/05:30pm 38.6 34.5 6.3 14 18.0 SSE 17 26 9 14 1005.9 1005.5 0.0
25/05:00pm 38.8 33.8 6.5 14 18.1 S 22 33 12 18 1005.9 1005.5 0.0
25/04:30pm 38.5 33.9 6.3 14 17.9 SSE 20 32 11 17 1006.1 1005.7 0.0
25/04:00pm 39.0 35.0 6.7 14 18.2 S 17 28 9 15 1006.3 1005.9 0.0
25/03:30pm 39.1 34.3 5.7 13 18.5 SSE 20 32 11 17 1006.5 1006.1 0.0
25/03:00pm 39.4 35.2 5.9 13 18.7 S 17 32 9 17 1006.7 1006.3 0.0
25/02:30pm 38.8 33.6 5.4 13 18.4 S 22 37 12 20 1007.0 1006.6 0.0
25/02:00pm 38.2 33.5 5.0 13 18.1 S 19 28 10 15 1007.7 1007.3 0.0
25/01:30pm 38.1 34.0 6.0 14 17.7 SSW 17 26 9 14 1008.2 1007.8 0.0
25/01:00pm 37.5 33.5 6.5 15 17.2 SSE 17 24 9 13 1008.7 1008.3 0.0
25/12:30pm 36.5 32.1 4.7 14 17.1 SSE 17 28 9 15 1009.4 1009.0 0.0
25/12:00pm 36.4 32.3 4.6 14 17.1 SSE 15 24 8 13 1009.8 1009.4 0.0
25/11:30am 36.0 30.9 4.3 14 16.9 SE 20 30 11 16 1010.2 1009.8 0.0
25/11:00am 34.6 29.1 4.2 15 16.1 SSE 22 30 12 16 1010.6 1010.2 0.0
25/10:30am 33.7 28.7 4.4 16 15.4 SE 20 30 11 16 1010.9 1010.5 0.0
25/10:00am 32.8 27.2 3.7 16 15.1 SE 22 33 12 18 1010.9 1010.5 0.0
25/09:30am 31.6 26.0 3.6 17 14.4 SE 22 30 12 16 1011.3 1010.9 0.0
25/09:00am 30.6 23.9 3.6 18 13.8 SE 28 35 15 19 1011.1 1010.7 0.0
25/08:30am 28.9 23.2 3.0 19 13.0 SE 22 30 12 16 1010.9 1010.5 0.0
25/08:00am 27.2 21.5 3.0 21 12.0 SSE 22 32 12 17 1010.8 1010.4 0.0
25/07:30am 26.2 21.0 3.5 23 11.3 SSE 20 28 11 15 1010.5 1010.1 0.0
25/07:00am 25.1 20.0 3.1 24 10.8 SSE 19 28 10 15 1010.4 1010.0 0.0
25/06:30am 24.8 20.2 3.5 25 10.5 SSE 17 22 9 12 1010.5 1010.1 0.0
25/06:00am 25.0 20.0 3.6 25 10.6 SE 19 22 10 12 1010.1 1009.7 0.0
25/05:30am 25.3 20.6 3.3 24 10.8 SE 17 20 9 11 1009.8 1009.4 0.0
25/05:00am 25.5 20.5 3.5 24 10.9 SSE 19 22 10 12 1009.3 1008.9 0.0
25/04:30am 25.7 20.5 3.6 24 10.9 SSE 20 26 11 14 1009.1 1008.7 0.0
25/04:00am 26.0 20.4 3.3 23 11.2 S 22 32 12 17 1008.9 1008.5 0.0
25/03:30am 26.4 20.4 3.6 23 11.3 SSE 24 32 13 17 1009.2 1008.8 0.0
25/03:00am 26.8 20.4 3.3 22 11.7 S 26 32 14 17 1009.2 1008.8 0.0
25/02:30am 27.3 21.0 3.7 22 11.8 S 26 35 14 19 1009.4 1009.0 0.0
25/02:00am 27.8 21.6 4.2 22 12.0 SSE 26 37 14 20 1009.6 1009.2 0.0
25/01:30am 28.2 22.4 4.5 22 12.1 SSE 24 30 13 16 1009.9 1009.5 0.0
25/01:00am 28.8 23.5 5.0 22 12.3 S 22 30 12 16 1010.2 1009.8 0.0
25/12:30am 29.2 24.0 5.3 22 12.5 S 22 30 12 16 1010.5 1010.1 0.0
25/12:00am 29.5 24.7 5.6 22 12.6 S 20 24 11 13 1010.6 1010.2 0.0
 
Date/Time
EST
Temp
°C
App
Temp
°C
Dew
Point
°C
Rel
Hum
%
Delta-T
°C
Wind Press
QNH
hPa
Press
MSL
hPa
Rain since
9am
mm
Dir  Spd
km/h
Gust
km/h
Spd
kts
Gust
kts
24/11:30pm 30.0 25.3 6.0 22 12.7 S 20 26 11 14 1010.6 1010.2 0.0
24/11:00pm 30.9 26.2 6.0 21 13.3 S 20 28 11 15 1010.5 1010.1 0.0
24/10:30pm 31.5 26.4 5.8 20 13.7 S 22 28 12 15 1010.2 1009.8 0.0
24/10:00pm 32.1 27.5 6.3 20 13.9 S 20 26 11 14 1010.3 1009.9 0.0
24/09:30pm 32.5 28.3 5.9 19 14.3 S 17 19 9 10 1010.1 1009.7 0.0
24/09:00pm 33.1 29.0 6.4 19 14.5 S 17 22 9 12 1009.7 1009.3 0.0
24/08:30pm 33.7 29.4 6.9 19 14.7 S 19 24 10 13 1009.1 1008.7 0.0
24/08:00pm 34.3 29.5 7.4 19 14.9 S 22 28 12 15 1008.6 1008.2 0.0
24/07:30pm 35.0 30.3 7.9 19 15.2 S 22 26 12 14 1008.1 1007.7 0.0
24/07:00pm 35.6 30.9 7.6 18 15.7 S 22 28 12 15 1007.8 1007.4 0.0
24/06:30pm 36.1 31.1 8.0 18 15.9 S 24 32 13 17 1007.3 1006.9 0.0
24/06:00pm 36.2 31.2 8.1 18 15.9 S 24 32 13 17 1006.9 1006.5 0.0
24/05:30pm 36.7 32.2 8.5 18 16.1 SSW 22 33 12 18 1006.8 1006.4 0.0
24/05:00pm 36.5 31.6 8.4 18 16.0 SSW 24 33 13 18 1006.9 1006.5 0.0
24/04:30pm 37.4 33.6 9.1 18 16.3 S 19 33 10 18 1007.3 1006.9 0.0
24/04:00pm 37.1 33.0 8.8 18 16.3 SSW 20 32 11 17 1007.4 1007.0 0.0
24/03:30pm 36.7 32.2 8.5 18 16.1 SW 22 32 12 17 1007.5 1007.1 0.0
24/03:00pm 36.2 31.4 8.9 19 15.7 SSW 24 39 13 21 1007.9 1007.5 0.0
24/02:30pm 36.3 31.9 9.0 19 15.7 SW 22 35 12 19 1008.4 1008.0 0.0
24/02:00pm 36.1 32.0 8.8 19 15.6 S 20 35 11 19 1008.9 1008.5 0.0
24/01:30pm 36.8 33.1 10.2 20 15.6 SSW 20 30 11 16 1009.4 1009.0 0.0
24/01:00pm 35.5 30.8 9.1 20 15.1 S 24 32 13 17 1009.9 1009.5 0.0
24/12:30pm 35.6 31.3 9.2 20 15.1 S 22 37 12 20 1010.4 1010.0 0.0

Other formats

Comma delimited format used in spreadsheet applications
http://www.bom.gov.au/fwo/IDQ60801/IDQ60801.95482.axf

JavaScript Object Notation format (JSON) in row-major order
http://www.bom.gov.au/fwo/IDQ60801/IDQ60801.95482.json

Data quality

Most of these data are generated automatically and are frequently updated. Quality checks on data are not normally performed. It is possible for incorrect values to appear. Refer to information at About Latest Weather Observations and please check the disclaimer before using these data.